createdAt,value
2018-11-10T00:01:40.975Z,26.60
2018-11-10T00:06:39.722Z,25.30
2018-11-10T00:11:38.463Z,22.80
2018-11-10T00:16:37.245Z,24.67
2018-11-10T00:21:35.888Z,25.73
2018-11-10T00:26:34.620Z,23.13
2018-11-10T00:31:33.368Z,27.83
2018-11-10T00:36:32.072Z,30.03
2018-11-10T00:41:30.824Z,20.23
2018-11-10T00:46:29.564Z,27.00
2018-11-10T00:51:28.300Z,22.90
2018-11-10T00:56:27.108Z,24.70
2018-11-10T01:01:25.840Z,20.60
2018-11-10T01:06:24.561Z,26.50
2018-11-10T01:11:23.268Z,22.40
2018-11-10T01:16:21.976Z,20.73
2018-11-10T01:21:20.712Z,22.57
2018-11-10T01:26:19.453Z,23.37
2018-11-10T01:31:18.196Z,22.43
2018-11-10T01:36:16.934Z,18.90
2018-11-10T01:41:15.675Z,20.63
2018-11-10T01:46:14.392Z,24.50
2018-11-10T01:51:13.104Z,19.03
2018-11-10T01:56:11.840Z,24.33
2018-11-10T02:01:10.596Z,19.20
2018-11-10T02:06:09.304Z,20.70
2018-11-10T02:11:08.016Z,19.27
2018-11-10T02:16:06.760Z,20.20
2018-11-10T02:21:05.831Z,21.80
2018-11-10T02:26:04.612Z,16.90
2018-11-10T02:31:03.350Z,22.80
2018-11-10T02:36:02.073Z,21.73
2018-11-10T02:41:00.820Z,19.83
2018-11-10T02:45:59.530Z,19.30
2018-11-10T02:50:58.248Z,19.43
2018-11-10T02:55:56.987Z,17.83
2018-11-10T03:00:55.712Z,21.50
2018-11-10T03:05:54.452Z,18.70
2018-11-10T03:10:53.241Z,16.50
2018-11-10T03:15:51.948Z,16.70
2018-11-10T03:20:50.689Z,16.73
2018-11-10T03:25:49.425Z,22.47
2018-11-10T03:30:48.132Z,17.47
2018-11-10T03:35:46.876Z,20.07
2018-11-10T03:40:45.596Z,20.97
2018-11-10T03:45:44.336Z,18.80
2018-11-10T03:50:43.069Z,16.57
2018-11-10T03:55:41.824Z,19.73
2018-11-10T04:00:40.543Z,19.43
2018-11-10T04:05:39.289Z,13.40
2018-11-10T04:10:38.024Z,14.63
2018-11-10T04:15:36.736Z,17.40
2018-11-10T04:20:35.500Z,17.83
2018-11-10T04:25:34.235Z,20.17
2018-11-10T04:30:32.979Z,19.03
2018-11-10T04:35:31.687Z,14.10
2018-11-10T04:40:30.424Z,16.60
2018-11-10T04:45:29.152Z,14.20
2018-11-10T04:50:27.865Z,16.97
2018-11-10T04:55:26.604Z,14.10
2018-11-10T05:00:25.464Z,21.07
2018-11-10T05:05:24.205Z,17.17
2018-11-10T05:10:22.932Z,18.70
2018-11-10T05:15:21.676Z,20.37
2018-11-10T05:20:20.411Z,19.70
2018-11-10T05:25:19.144Z,15.03
2018-11-10T05:30:17.889Z,15.73
2018-11-10T05:35:16.598Z,16.00
2018-11-10T05:40:15.426Z,16.87
2018-11-10T05:45:14.111Z,15.50
2018-11-10T05:50:12.845Z,15.70
2018-11-10T05:55:11.579Z,16.40
2018-11-10T06:00:11.612Z,14.40
2018-11-10T06:05:10.752Z,17.17
2018-11-10T06:10:10.869Z,15.37
2018-11-10T06:15:10.109Z,15.27
2018-11-10T06:20:10.275Z,16.00
2018-11-10T06:25:10.065Z,14.60
2018-11-10T06:30:09.672Z,11.27
2018-11-10T06:35:08.925Z,13.10
2018-11-10T06:40:09.272Z,11.07
2018-11-10T06:45:08.042Z,12.10
2018-11-10T06:50:08.297Z,16.33
2018-11-10T06:55:07.928Z,16.90
2018-11-10T07:00:09.907Z,14.40
2018-11-10T07:05:09.124Z,13.00
2018-11-10T07:10:08.061Z,12.50
2018-11-10T07:15:07.716Z,14.20
2018-11-10T07:20:06.888Z,12.93
2018-11-10T07:25:05.927Z,13.03
2018-11-10T07:30:06.160Z,11.37
2018-11-10T07:35:05.572Z,10.63
2018-11-10T07:40:05.124Z,10.87
2018-11-10T07:45:03.851Z,9.47
2018-11-10T07:50:02.579Z,11.67
2018-11-10T07:55:01.317Z,12.17
2018-11-10T08:00:00.115Z,11.70
2018-11-10T08:04:58.980Z,10.23
2018-11-10T08:09:57.692Z,10.30
2018-11-10T08:14:56.403Z,8.93
2018-11-10T08:19:55.120Z,8.20
2018-11-10T08:24:53.912Z,9.00
2018-11-10T08:29:52.634Z,9.17
2018-11-10T08:34:51.341Z,11.67
2018-11-10T08:39:50.105Z,9.47
2018-11-10T08:44:48.848Z,9.70
2018-11-10T08:49:47.571Z,11.83
2018-11-10T08:54:46.317Z,8.27
2018-11-10T08:59:45.073Z,9.13
2018-11-10T09:04:43.816Z,8.73
2018-11-10T09:09:42.549Z,8.93
2018-11-10T09:14:41.312Z,9.60
2018-11-10T09:19:40.031Z,9.10
2018-11-10T09:24:38.755Z,8.23
2018-11-10T09:29:37.489Z,9.47
2018-11-10T09:34:36.228Z,10.43
2018-11-10T09:39:35.068Z,11.07
2018-11-10T09:44:33.808Z,9.20
2018-11-10T09:49:32.541Z,9.97
2018-11-10T09:54:31.239Z,11.10
2018-11-10T09:59:29.957Z,9.73
2018-11-10T10:04:28.664Z,9.70
2018-11-10T10:09:27.379Z,9.83
2018-11-10T10:14:26.092Z,11.20
2018-11-10T10:19:24.820Z,10.93
2018-11-10T10:24:23.555Z,9.27
2018-11-10T10:29:22.276Z,10.17
2018-11-10T10:34:21.068Z,8.53
2018-11-10T10:39:19.760Z,9.63
2018-11-10T10:44:18.477Z,8.83
2018-11-10T10:49:17.277Z,9.10
2018-11-10T10:54:15.888Z,9.10
2018-11-10T10:59:14.592Z,9.07
2018-11-10T11:04:18.746Z,6.67
2018-11-10T11:09:17.475Z,8.20
2018-11-10T11:14:16.192Z,7.00
2018-11-10T11:19:15.944Z,7.60
2018-11-10T11:24:14.769Z,9.00
2018-11-10T11:29:13.524Z,9.33
2018-11-10T11:34:12.436Z,6.27
2018-11-10T11:39:12.044Z,8.40
2018-11-10T11:44:10.770Z,7.60
2018-11-10T11:49:09.768Z,6.30
2018-11-10T11:54:08.479Z,6.10
2018-11-10T11:59:07.237Z,5.40
2018-11-10T12:04:06.828Z,7.50
2018-11-10T12:09:08.172Z,5.60
2018-11-10T12:14:06.893Z,5.00
2018-11-10T12:19:06.065Z,6.20
2018-11-10T12:24:05.134Z,7.00
2018-11-10T12:29:03.860Z,7.07
2018-11-10T12:34:02.592Z,6.27
2018-11-10T12:39:01.340Z,5.27
2018-11-10T12:44:00.074Z,6.77
2018-11-10T12:48:58.827Z,7.90
2018-11-10T12:53:57.575Z,8.53
2018-11-10T12:58:56.357Z,8.07
2018-11-10T13:03:55.026Z,8.87
2018-11-10T13:08:53.795Z,7.67
2018-11-10T13:13:52.452Z,8.80
2018-11-10T13:18:51.167Z,9.80
2018-11-10T13:23:49.912Z,9.40
2018-11-10T13:28:49.258Z,8.40
2018-11-10T13:33:47.980Z,7.30
2018-11-10T13:38:46.718Z,8.57
2018-11-10T13:43:45.521Z,9.13
2018-11-10T13:48:44.192Z,9.60
2018-11-10T13:53:42.923Z,8.23
2018-11-10T13:58:41.633Z,9.93
2018-11-10T14:03:40.353Z,8.50
2018-11-10T14:08:39.075Z,9.90
2018-11-10T14:13:37.841Z,10.37
2018-11-10T14:18:36.569Z,8.97
2018-11-10T14:23:35.285Z,10.70
2018-11-10T14:28:34.013Z,8.77
2018-11-10T14:33:32.841Z,10.07
2018-11-10T14:38:31.574Z,8.97
2018-11-10T14:43:30.314Z,10.07
2018-11-10T14:48:29.035Z,9.20
2018-11-10T14:53:27.768Z,11.47
2018-11-10T14:58:26.522Z,10.77
2018-11-10T15:03:25.216Z,11.40
2018-11-10T15:08:23.963Z,11.33
2018-11-10T15:13:22.712Z,12.90
2018-11-10T15:18:21.579Z,11.93
2018-11-10T15:23:20.184Z,11.47
2018-11-10T15:28:18.928Z,8.33
2018-11-10T15:33:17.648Z,13.43
2018-11-10T15:38:16.372Z,12.53
2018-11-10T15:43:15.096Z,9.70
2018-11-10T15:48:13.808Z,10.00
2018-11-10T15:53:12.543Z,11.07
2018-11-10T15:58:11.277Z,16.00
2018-11-10T16:03:09.992Z,11.50
2018-11-10T16:08:08.713Z,12.53
2018-11-10T16:13:07.448Z,12.87
2018-11-10T16:18:06.184Z,11.13
2018-11-10T16:23:04.929Z,10.07
2018-11-10T16:28:03.649Z,12.10
2018-11-10T16:33:02.364Z,10.00
2018-11-10T16:38:01.110Z,10.80
2018-11-10T16:42:59.826Z,9.60
2018-11-10T16:47:58.544Z,11.27
2018-11-10T16:52:57.289Z,10.43
2018-11-10T16:58:02.813Z,10.17
2018-11-10T17:03:01.585Z,11.57
2018-11-10T17:08:00.312Z,12.93
2018-11-10T17:12:59.040Z,11.20
2018-11-10T17:17:57.768Z,10.87
2018-11-10T17:22:56.500Z,11.90
2018-11-10T17:27:55.231Z,11.17
2018-11-10T17:32:53.956Z,12.37
2018-11-10T17:37:52.720Z,11.03
2018-11-10T17:42:51.508Z,10.50
2018-11-10T17:47:50.267Z,13.93
2018-11-10T17:52:49.025Z,11.57
2018-11-10T17:57:48.003Z,11.07
2018-11-10T18:02:46.670Z,11.17
2018-11-10T18:07:45.668Z,11.13
2018-11-10T18:12:45.036Z,13.87
2018-11-10T18:17:44.096Z,11.57
2018-11-10T18:22:43.303Z,10.83
2018-11-10T18:27:42.048Z,12.00
2018-11-10T18:32:40.830Z,10.40
2018-11-10T18:37:39.627Z,11.23
2018-11-10T18:42:38.377Z,9.97
2018-11-10T18:47:37.345Z,10.00
2018-11-10T18:52:36.060Z,10.90
2018-11-10T18:57:34.884Z,9.57
2018-11-10T19:02:33.500Z,8.70
2018-11-10T19:07:32.213Z,9.77
2018-11-10T19:12:30.955Z,8.20
2018-11-10T19:17:29.685Z,9.63
2018-11-10T19:22:28.412Z,8.70
2018-11-10T19:27:27.184Z,9.30
2018-11-10T19:32:25.974Z,9.90
2018-11-10T19:37:24.568Z,8.00
2018-11-10T19:42:23.319Z,7.37
2018-11-10T19:47:22.032Z,8.20
2018-11-10T19:52:20.789Z,7.10
2018-11-10T19:57:19.483Z,7.57
2018-11-10T20:02:18.268Z,7.30
2018-11-10T20:07:16.996Z,6.50
2018-11-10T20:12:15.727Z,8.03
2018-11-10T20:17:14.449Z,6.50
2018-11-10T20:22:13.194Z,6.70
2018-11-10T20:27:11.916Z,7.30
2018-11-10T20:32:10.641Z,7.47
2018-11-10T20:37:09.377Z,6.33
2018-11-10T20:42:08.108Z,6.27
2018-11-10T20:47:06.860Z,7.03
2018-11-10T20:52:05.594Z,6.53
2018-11-10T20:57:04.516Z,6.90
2018-11-10T21:02:03.244Z,5.30
2018-11-10T21:07:01.944Z,5.30
2018-11-10T21:12:00.665Z,6.10
2018-11-10T21:16:59.444Z,5.83
2018-11-10T21:21:58.160Z,5.53
2018-11-10T21:26:56.872Z,4.50
2018-11-10T21:31:55.605Z,5.53
2018-11-10T21:36:54.316Z,6.00
2018-11-10T21:41:53.046Z,7.90
2018-11-10T21:46:51.768Z,6.57
2018-11-10T21:51:50.464Z,4.73
2018-11-10T21:56:49.175Z,6.33
2018-11-10T22:01:47.901Z,6.50
2018-11-10T22:06:46.644Z,7.00
2018-11-10T22:11:45.380Z,6.27
2018-11-10T22:16:44.088Z,6.33
2018-11-10T22:21:42.812Z,6.10
2018-11-10T22:26:41.542Z,5.37
2018-11-10T22:31:40.288Z,5.00
2018-11-10T22:36:39.015Z,5.60
2018-11-10T22:41:37.708Z,5.47
2018-11-10T22:46:36.434Z,5.63
2018-11-10T22:51:35.176Z,7.27
2018-11-10T22:56:33.898Z,5.43
2018-11-10T23:01:33.572Z,5.37
2018-11-10T23:06:32.301Z,6.63
2018-11-10T23:11:31.000Z,6.80
2018-11-10T23:16:29.704Z,6.53
2018-11-10T23:21:28.471Z,6.00
2018-11-10T23:26:27.197Z,6.20
2018-11-10T23:31:25.923Z,4.93
2018-11-10T23:36:24.616Z,5.57
2018-11-10T23:41:23.356Z,4.83
2018-11-10T23:46:22.052Z,5.50
2018-11-10T23:51:20.780Z,6.47
2018-11-10T23:56:19.504Z,5.43
